createdAt,value
2023-05-15T00:00:51.396Z,7.90
2023-05-15T00:01:51.377Z,7.20
2023-05-15T00:02:51.480Z,7.00
2023-05-15T00:03:51.414Z,7.90
2023-05-15T00:04:51.455Z,7.00
2023-05-15T00:05:51.356Z,7.50
2023-05-15T00:06:51.353Z,9.00
2023-05-15T00:07:51.336Z,7.40
2023-05-15T00:08:51.347Z,7.40
2023-05-15T00:09:51.344Z,7.70
2023-05-15T00:11:00.797Z,7.10
2023-05-15T00:11:51.322Z,7.30
2023-05-15T00:12:51.326Z,7.00
2023-05-15T00:13:51.317Z,7.60
2023-05-15T00:14:51.304Z,8.40
2023-05-15T00:15:51.382Z,8.70
2023-05-15T00:16:51.289Z,7.30
2023-05-15T00:17:51.316Z,7.00
2023-05-15T00:18:51.300Z,7.20
2023-05-15T00:19:51.267Z,6.90
2023-05-15T00:20:51.268Z,7.10
2023-05-15T00:21:51.266Z,7.20
2023-05-15T00:22:51.263Z,8.60
2023-05-15T00:23:51.250Z,7.00
2023-05-15T00:24:51.243Z,6.90
2023-05-15T00:25:51.248Z,8.80
2023-05-15T00:26:51.237Z,7.10
2023-05-15T00:27:51.233Z,7.20
2023-05-15T00:28:51.223Z,7.70
2023-05-15T00:29:51.230Z,9.80
2023-05-15T00:30:51.212Z,7.10
2023-05-15T00:31:51.428Z,8.40
2023-05-15T00:32:51.267Z,7.20
2023-05-15T00:33:51.204Z,7.20
2023-05-15T00:34:51.202Z,8.30
2023-05-15T00:35:51.191Z,7.00
2023-05-15T00:36:51.185Z,7.00
2023-05-15T00:37:51.180Z,7.00
2023-05-15T00:38:51.173Z,7.50
2023-05-15T00:39:51.173Z,7.60
2023-05-15T00:40:51.169Z,7.20
2023-05-15T00:41:51.186Z,7.40
2023-05-15T00:42:51.194Z,7.70
2023-05-15T00:43:51.151Z,7.10
2023-05-15T00:44:51.145Z,8.00
2023-05-15T00:45:51.136Z,6.80
2023-05-15T00:46:51.179Z,26.50
2023-05-15T00:47:51.166Z,9.10
2023-05-15T00:48:51.127Z,9.30
2023-05-15T00:49:51.118Z,8.80
2023-05-15T00:50:51.103Z,7.20
2023-05-15T00:51:51.128Z,7.80
2023-05-15T00:52:51.092Z,7.60
2023-05-15T00:53:51.172Z,7.80
2023-05-15T00:54:51.083Z,7.30
2023-05-15T00:55:51.082Z,7.30
2023-05-15T00:56:51.074Z,7.50
2023-05-15T00:57:51.067Z,6.90
2023-05-15T00:58:51.063Z,15.40
2023-05-15T00:59:51.060Z,9.30
2023-05-15T01:00:51.115Z,7.10
2023-05-15T01:01:51.045Z,6.90
2023-05-15T01:02:51.137Z,7.00
2023-05-15T01:03:51.042Z,7.10
2023-05-15T01:04:51.033Z,8.10
2023-05-15T01:05:51.028Z,7.70
2023-05-15T01:06:51.009Z,7.30
2023-05-15T01:07:51.011Z,7.00
2023-05-15T01:08:51.007Z,7.30
2023-05-15T01:09:51.001Z,7.90
2023-05-15T01:10:50.997Z,7.90
2023-05-15T01:11:50.995Z,7.30
2023-05-15T01:12:50.994Z,10.00
2023-05-15T01:13:50.987Z,7.70
2023-05-15T01:14:50.976Z,9.10
2023-05-15T01:15:50.965Z,7.30
2023-05-15T01:16:50.955Z,9.50
2023-05-15T01:17:51.080Z,12.00
2023-05-15T01:18:51.038Z,9.00
2023-05-15T01:19:51.162Z,7.60
2023-05-15T01:20:50.934Z,9.90
2023-05-15T01:21:50.923Z,8.80
2023-05-15T01:22:50.926Z,6.80
2023-05-15T01:23:50.917Z,9.50
2023-05-15T01:24:50.915Z,7.50
2023-05-15T01:25:50.904Z,7.30
2023-05-15T01:26:50.905Z,7.40
2023-05-15T01:27:50.916Z,7.40
2023-05-15T01:28:50.924Z,7.70
2023-05-15T01:29:50.889Z,8.50
2023-05-15T01:30:50.878Z,6.80
2023-05-15T01:31:50.920Z,7.50
2023-05-15T01:32:50.909Z,7.40
2023-05-15T01:33:50.864Z,7.90
2023-05-15T01:34:50.858Z,7.20
2023-05-15T01:35:50.861Z,7.30
2023-05-15T01:36:50.848Z,7.00
2023-05-15T01:37:50.832Z,7.80
2023-05-15T01:38:50.842Z,7.50
2023-05-15T01:39:50.837Z,7.30
2023-05-15T01:40:50.821Z,9.80
2023-05-15T01:41:50.814Z,7.20
2023-05-15T01:42:50.815Z,9.40
2023-05-15T01:43:50.793Z,8.30
2023-05-15T01:44:50.789Z,8.00
2023-05-15T01:45:50.795Z,7.40
2023-05-15T01:46:50.856Z,7.60
2023-05-15T01:47:50.789Z,7.20
2023-05-15T01:48:50.796Z,9.00
2023-05-15T01:49:50.775Z,7.10
2023-05-15T01:50:50.762Z,7.00
2023-05-15T01:51:50.760Z,7.70
2023-05-15T01:52:50.760Z,7.40
2023-05-15T01:53:50.746Z,7.00
2023-05-15T01:54:50.738Z,7.20
2023-05-15T01:55:50.737Z,8.10
2023-05-15T01:56:50.731Z,7.90
2023-05-15T01:57:50.725Z,7.50
2023-05-15T01:58:50.722Z,7.20
2023-05-15T01:59:50.712Z,7.30
2023-05-15T02:00:50.734Z,7.50
2023-05-15T02:01:50.739Z,7.60
2023-05-15T02:02:50.770Z,7.90
2023-05-15T02:03:50.768Z,7.50
2023-05-15T02:04:50.695Z,7.30
2023-05-15T02:05:50.674Z,7.50
2023-05-15T02:06:50.682Z,7.50
2023-05-15T02:07:50.662Z,7.40
2023-05-15T02:08:50.661Z,7.30
2023-05-15T02:09:50.654Z,7.40
2023-05-15T02:11:05.330Z,7.30
2023-05-15T02:11:50.651Z,9.00
2023-05-15T02:12:50.641Z,7.30
2023-05-15T02:13:50.634Z,7.30
2023-05-15T02:14:50.660Z,7.50
2023-05-15T02:15:50.692Z,7.10
2023-05-15T02:16:50.612Z,8.80
2023-05-15T02:17:50.655Z,8.90
2023-05-15T02:18:50.655Z,7.10
2023-05-15T02:19:50.599Z,8.70
2023-05-15T02:20:50.708Z,8.70
2023-05-15T02:21:50.588Z,7.40
2023-05-15T02:22:50.585Z,7.20
2023-05-15T02:23:50.578Z,7.60
2023-05-15T02:24:50.570Z,7.10
2023-05-15T02:25:50.566Z,7.00
2023-05-15T02:26:50.562Z,8.10
2023-05-15T02:27:50.558Z,7.30
2023-05-15T02:28:50.542Z,8.10
2023-05-15T02:29:50.554Z,10.30
2023-05-15T02:30:50.522Z,7.40
2023-05-15T02:31:50.572Z,7.50
2023-05-15T02:32:50.553Z,7.70
2023-05-15T02:33:50.516Z,9.00
2023-05-15T02:34:50.510Z,8.30
2023-05-15T02:35:50.638Z,9.60
2023-05-15T02:36:50.501Z,7.20
2023-05-15T02:37:50.499Z,7.60
2023-05-15T02:38:50.495Z,7.60
2023-05-15T02:39:50.493Z,8.20
2023-05-15T02:40:50.481Z,7.20
2023-05-15T02:41:50.480Z,7.60
2023-05-15T02:42:50.472Z,8.00
2023-05-15T02:43:50.459Z,8.00
2023-05-15T02:44:50.453Z,7.90
2023-05-15T02:45:50.499Z,7.30
2023-05-15T02:46:50.445Z,10.00
2023-05-15T02:47:50.515Z,7.60
2023-05-15T02:48:50.431Z,7.70
2023-05-15T02:49:50.426Z,8.20
2023-05-15T02:50:50.423Z,9.70
2023-05-15T02:51:50.406Z,8.70
2023-05-15T02:52:50.419Z,7.60
2023-05-15T02:53:50.403Z,8.60
2023-05-15T02:54:50.397Z,11.00
2023-05-15T02:55:50.399Z,8.20
2023-05-15T02:56:50.376Z,7.60
2023-05-15T02:57:50.370Z,9.10
2023-05-15T02:58:50.372Z,8.20
2023-05-15T02:59:50.371Z,7.90
2023-05-15T03:00:50.400Z,14.40
2023-05-15T03:01:50.350Z,8.30
2023-05-15T03:02:50.412Z,11.10
2023-05-15T03:03:50.372Z,9.30
2023-05-15T03:04:50.336Z,8.30
2023-05-15T03:05:50.357Z,8.00
2023-05-15T03:06:50.337Z,9.20
2023-05-15T03:07:50.329Z,8.50
2023-05-15T03:08:50.332Z,15.50
2023-05-15T03:09:50.313Z,7.50
2023-05-15T03:10:50.308Z,8.00
2023-05-15T03:11:50.305Z,8.70
2023-05-15T03:12:50.295Z,8.30
2023-05-15T03:13:50.296Z,10.40
2023-05-15T03:14:50.280Z,8.80
2023-05-15T03:15:50.282Z,8.40
2023-05-15T03:16:50.342Z,11.00
2023-05-15T03:17:50.325Z,9.10
2023-05-15T03:18:50.322Z,12.20
2023-05-15T03:19:50.257Z,8.60
2023-05-15T03:20:50.256Z,8.70
2023-05-15T03:21:50.257Z,7.50
2023-05-15T03:22:50.250Z,9.20
2023-05-15T03:23:50.236Z,10.20
2023-05-15T03:24:50.249Z,9.40
2023-05-15T03:25:50.231Z,9.10
2023-05-15T03:26:50.219Z,10.30
2023-05-15T03:27:50.216Z,9.60
2023-05-15T03:28:50.214Z,11.00
2023-05-15T03:29:50.210Z,11.50
2023-05-15T03:30:50.197Z,10.20
2023-05-15T03:31:50.241Z,8.90
2023-05-15T03:32:50.227Z,10.90
2023-05-15T03:33:50.191Z,13.00
2023-05-15T03:34:50.177Z,10.80
2023-05-15T03:35:50.174Z,9.50
2023-05-15T03:36:50.163Z,12.70
2023-05-15T03:37:50.164Z,16.10
2023-05-15T03:38:50.165Z,9.90
2023-05-15T03:39:50.153Z,8.50
2023-05-15T03:40:51.278Z,9.30
2023-05-15T03:41:50.144Z,10.40
2023-05-15T03:42:50.144Z,10.10
2023-05-15T03:43:50.143Z,9.30
2023-05-15T03:44:50.126Z,16.30
2023-05-15T03:45:50.126Z,10.50
2023-05-15T03:46:50.168Z,11.10
2023-05-15T03:47:50.225Z,11.30
2023-05-15T03:48:50.108Z,10.90
2023-05-15T03:49:50.091Z,9.60
2023-05-15T03:50:50.091Z,11.40
2023-05-15T03:51:50.101Z,9.30
2023-05-15T03:52:50.081Z,8.80
2023-05-15T03:53:50.087Z,15.90
2023-05-15T03:54:50.077Z,7.90
2023-05-15T03:55:50.064Z,10.50
2023-05-15T03:56:50.100Z,8.20
2023-05-15T03:57:50.067Z,9.60
2023-05-15T03:58:50.067Z,11.00
2023-05-15T03:59:50.062Z,13.10
2023-05-15T04:00:50.042Z,11.40
2023-05-15T04:02:03.410Z,8.90
2023-05-15T04:02:50.100Z,9.80
2023-05-15T04:03:50.027Z,11.00
2023-05-15T04:04:50.104Z,8.90
2023-05-15T04:05:50.030Z,8.30
2023-05-15T04:06:50.008Z,7.80
2023-05-15T04:07:50.006Z,14.10
2023-05-15T04:08:49.999Z,8.80
2023-05-15T04:09:49.996Z,9.30
2023-05-15T04:10:49.988Z,10.50
2023-05-15T04:11:49.989Z,9.10
2023-05-15T04:12:50.002Z,7.70
2023-05-15T04:13:49.970Z,8.40
2023-05-15T04:14:49.969Z,16.60
2023-05-15T04:15:49.971Z,8.50
2023-05-15T04:16:50.100Z,10.40
2023-05-15T04:17:50.011Z,14.90
2023-05-15T04:18:49.995Z,12.30
2023-05-15T04:19:49.946Z,12.40
2023-05-15T04:20:49.934Z,11.50
2023-05-15T04:21:49.940Z,22.00
2023-05-15T04:22:49.928Z,16.20
2023-05-15T04:23:49.918Z,12.50
2023-05-15T04:24:49.918Z,15.70
2023-05-15T04:25:49.908Z,17.00
2023-05-15T04:26:49.931Z,12.80
2023-05-15T04:27:49.902Z,18.50
2023-05-15T04:29:02.833Z,15.60
2023-05-15T04:29:49.902Z,23.70
2023-05-15T04:30:49.883Z,20.90
2023-05-15T04:31:49.913Z,19.80
2023-05-15T04:32:49.883Z,24.60
2023-05-15T04:33:51.339Z,19.70
2023-05-15T04:34:49.871Z,27.20
2023-05-15T04:35:49.862Z,25.20
2023-05-15T04:36:49.844Z,18.10
2023-05-15T04:37:49.854Z,19.50
2023-05-15T04:38:49.842Z,18.60
2023-05-15T04:39:49.854Z,20.60
2023-05-15T04:40:49.828Z,15.90
2023-05-15T04:41:49.825Z,21.70
2023-05-15T04:42:49.819Z,18.90
2023-05-15T04:43:49.808Z,19.30
2023-05-15T04:44:49.805Z,22.30
2023-05-15T04:45:49.845Z,19.70
2023-05-15T04:46:49.801Z,20.10
2023-05-15T04:47:49.822Z,22.40
2023-05-15T04:48:49.778Z,27.60
2023-05-15T04:49:49.781Z,21.40
2023-05-15T04:50:49.784Z,19.60
2023-05-15T04:51:49.771Z,24.00
2023-05-15T04:52:49.769Z,15.10
2023-05-15T04:53:49.761Z,14.80
2023-05-15T04:54:49.756Z,20.80
2023-05-15T04:55:49.750Z,19.60
2023-05-15T04:56:49.746Z,17.80
2023-05-15T04:57:49.748Z,16.30
2023-05-15T04:58:49.742Z,21.90
2023-05-15T04:59:49.743Z,21.60
2023-05-15T05:00:49.726Z,21.40
2023-05-15T05:01:49.743Z,18.60
2023-05-15T05:02:49.831Z,15.20
2023-05-15T05:03:49.758Z,16.00
2023-05-15T05:04:49.702Z,13.70
2023-05-15T05:05:49.701Z,19.30
2023-05-15T05:06:49.692Z,15.30
2023-05-15T05:07:49.689Z,19.70
2023-05-15T05:08:49.675Z,19.50
2023-05-15T05:09:49.679Z,17.30
2023-05-15T05:10:49.677Z,19.50
2023-05-15T05:11:49.673Z,15.00
2023-05-15T05:12:49.677Z,23.70
2023-05-15T05:13:49.662Z,29.60
2023-05-15T05:14:49.661Z,15.00
2023-05-15T05:15:49.733Z,19.20
2023-05-15T05:16:49.655Z,19.30
2023-05-15T05:17:49.649Z,21.90
2023-05-15T05:18:49.662Z,22.30
2023-05-15T05:19:49.629Z,16.80
2023-05-15T05:20:49.622Z,12.90
2023-05-15T05:21:49.623Z,21.80
2023-05-15T05:22:49.614Z,18.90
2023-05-15T05:23:49.613Z,19.60
2023-05-15T05:24:49.614Z,16.80
2023-05-15T05:25:49.601Z,28.90
2023-05-15T05:26:49.593Z,17.80
2023-05-15T05:27:49.591Z,14.50
2023-05-15T05:28:49.599Z,17.90
2023-05-15T05:29:49.580Z,14.50
2023-05-15T05:30:49.571Z,16.70
2023-05-15T05:31:49.595Z,26.50
2023-05-15T05:32:49.617Z,23.60
2023-05-15T05:33:49.563Z,23.10
2023-05-15T05:34:49.558Z,24.90
2023-05-15T05:35:49.556Z,26.30
2023-05-15T05:36:49.553Z,24.40
2023-05-15T05:37:49.535Z,20.50
2023-05-15T05:38:49.521Z,20.40
2023-05-15T05:39:49.521Z,17.70
2023-05-15T05:40:49.518Z,22.40
2023-05-15T05:41:49.510Z,15.40
2023-05-15T05:42:49.522Z,17.00
2023-05-15T05:43:49.499Z,17.70
2023-05-15T05:44:49.501Z,20.20
2023-05-15T05:45:49.494Z,13.80
2023-05-15T05:46:49.525Z,16.50
2023-05-15T05:47:49.530Z,19.40
2023-05-15T05:48:49.478Z,22.50
2023-05-15T05:49:49.475Z,21.90
2023-05-15T05:50:49.467Z,16.20
2023-05-15T05:51:49.468Z,23.10
2023-05-15T05:52:49.466Z,21.30
2023-05-15T05:53:49.455Z,18.40
2023-05-15T05:54:49.447Z,23.90
2023-05-15T05:55:49.440Z,18.60
2023-05-15T05:56:49.436Z,19.80
2023-05-15T05:57:49.429Z,20.10
2023-05-15T05:58:49.429Z,19.50
2023-05-15T05:59:49.421Z,19.20
2023-05-15T06:00:49.421Z,21.10
2023-05-15T06:01:49.443Z,18.40
2023-05-15T06:02:49.507Z,18.40
2023-05-15T06:03:49.541Z,18.80
2023-05-15T06:04:49.468Z,17.40
2023-05-15T06:05:49.410Z,18.10
2023-05-15T06:06:49.389Z,30.30
2023-05-15T06:07:49.388Z,15.40
2023-05-15T06:08:49.378Z,15.90
2023-05-15T06:09:49.375Z,18.60
2023-05-15T06:10:49.361Z,22.50
2023-05-15T06:11:49.360Z,17.80
2023-05-15T06:12:49.354Z,17.70
2023-05-15T06:13:49.352Z,15.60
2023-05-15T06:14:49.342Z,21.50
2023-05-15T06:15:49.339Z,13.90
2023-05-15T06:16:49.368Z,20.20
2023-05-15T06:17:49.345Z,17.20
2023-05-15T06:18:49.373Z,18.70
2023-05-15T06:19:49.322Z,26.80
2023-05-15T06:20:49.316Z,19.70
2023-05-15T06:21:49.318Z,13.50
2023-05-15T06:22:49.302Z,14.30
2023-05-15T06:23:49.292Z,17.50
2023-05-15T06:24:49.296Z,21.80
2023-05-15T06:25:49.287Z,16.90
2023-05-15T06:26:50.411Z,17.70
2023-05-15T06:27:49.274Z,22.40
2023-05-15T06:28:49.274Z,23.60
2023-05-15T06:29:49.264Z,26.90
2023-05-15T06:30:49.291Z,14.40
2023-05-15T06:31:49.261Z,19.30
2023-05-15T06:32:49.310Z,19.10
2023-05-15T06:33:49.263Z,21.10
2023-05-15T06:34:49.247Z,22.50
2023-05-15T06:35:49.249Z,16.30
2023-05-15T06:36:49.233Z,17.10
2023-05-15T06:37:49.233Z,18.90
2023-05-15T06:38:49.223Z,18.10
2023-05-15T06:39:49.222Z,18.10
2023-05-15T06:40:49.216Z,17.60
2023-05-15T06:41:49.212Z,15.70
2023-05-15T06:42:49.207Z,16.70
2023-05-15T06:43:49.192Z,15.90
2023-05-15T06:44:49.196Z,17.60
2023-05-15T06:45:49.212Z,18.80
2023-05-15T06:46:49.262Z,15.30
2023-05-15T06:47:49.233Z,14.50
2023-05-15T06:48:49.183Z,19.00
2023-05-15T06:49:49.167Z,14.40
2023-05-15T06:50:49.198Z,17.50
2023-05-15T06:51:49.158Z,15.20
2023-05-15T06:52:49.160Z,23.00
2023-05-15T06:53:49.152Z,23.50
2023-05-15T06:54:49.145Z,13.30
2023-05-15T06:55:49.145Z,17.20
2023-05-15T06:56:49.133Z,16.10
2023-05-15T06:57:49.192Z,19.70
2023-05-15T06:58:49.126Z,19.20
2023-05-15T06:59:49.130Z,17.50
2023-05-15T07:00:49.125Z,17.20
2023-05-15T07:01:49.175Z,24.10
2023-05-15T07:02:49.129Z,18.70
2023-05-15T07:03:49.105Z,18.30
2023-05-15T07:04:49.158Z,16.40
2023-05-15T07:05:49.090Z,17.90
2023-05-15T07:06:49.089Z,22.10
2023-05-15T07:07:49.077Z,21.40
2023-05-15T07:08:49.067Z,17.00
2023-05-15T07:09:49.065Z,11.70
2023-05-15T07:10:49.077Z,14.50
2023-05-15T07:11:49.058Z,14.70
2023-05-15T07:12:49.054Z,16.80
2023-05-15T07:13:50.224Z,20.00
2023-05-15T07:14:49.041Z,20.10
2023-05-15T07:15:49.066Z,18.10
2023-05-15T07:16:49.103Z,18.80
2023-05-15T07:17:49.138Z,14.00
2023-05-15T07:18:49.129Z,16.70
2023-05-15T07:19:49.027Z,17.10
2023-05-15T07:20:49.019Z,24.50
2023-05-15T07:21:49.000Z,18.10
2023-05-15T07:22:56.178Z,13.80
2023-05-15T07:23:49.019Z,19.70
2023-05-15T07:24:49.193Z,13.60
2023-05-15T07:25:48.991Z,21.40
2023-05-15T07:26:57.998Z,15.10
2023-05-15T07:27:48.993Z,19.10
2023-05-15T07:28:48.983Z,18.50
2023-05-15T07:29:48.972Z,18.00
2023-05-15T07:30:48.980Z,14.80
2023-05-15T07:31:49.014Z,19.60
2023-05-15T07:32:48.981Z,17.60
2023-05-15T07:33:48.958Z,18.50
2023-05-15T07:34:48.941Z,20.10
2023-05-15T07:35:48.949Z,18.90
2023-05-15T07:36:48.947Z,15.10
2023-05-15T07:37:48.954Z,21.80
2023-05-15T07:38:48.920Z,17.70
2023-05-15T07:39:48.948Z,18.10
2023-05-15T07:40:48.922Z,16.10
2023-05-15T07:41:48.929Z,17.30
2023-05-15T07:42:48.961Z,21.80
2023-05-15T07:43:48.918Z,18.20
2023-05-15T07:44:49.748Z,19.00
2023-05-15T07:45:48.949Z,17.90
2023-05-15T07:46:48.956Z,17.90
2023-05-15T07:47:49.037Z,18.30
2023-05-15T07:48:48.888Z,22.00
2023-05-15T07:49:48.852Z,20.20
2023-05-15T07:50:48.866Z,17.30
2023-05-15T07:51:48.866Z,20.10
2023-05-15T07:52:48.854Z,14.80
2023-05-15T07:53:48.847Z,21.30
2023-05-15T07:54:48.840Z,18.30
2023-05-15T07:55:48.837Z,17.70
2023-05-15T07:56:48.882Z,18.50
2023-05-15T07:57:53.534Z,18.90
2023-05-15T07:58:48.853Z,16.80
2023-05-15T07:59:48.804Z,23.40
2023-05-15T08:00:48.839Z,14.90
2023-05-15T08:01:48.799Z,20.10
2023-05-15T08:02:48.938Z,15.40
2023-05-15T08:03:48.862Z,20.50
2023-05-15T08:04:48.796Z,22.10
2023-05-15T08:05:48.803Z,20.90
2023-05-15T08:06:48.805Z,15.70
2023-05-15T08:07:48.779Z,23.00
2023-05-15T08:08:48.773Z,16.00
2023-05-15T08:09:48.766Z,17.10
2023-05-15T08:10:48.758Z,13.20
2023-05-15T08:11:48.757Z,16.30
2023-05-15T08:12:48.865Z,19.20
2023-05-15T08:13:48.777Z,18.80
2023-05-15T08:14:48.785Z,17.20
2023-05-15T08:15:48.759Z,18.10
2023-05-15T08:16:48.724Z,19.20
2023-05-15T08:17:48.753Z,20.10
2023-05-15T08:18:48.748Z,14.80
2023-05-15T08:19:48.725Z,15.40
2023-05-15T08:20:48.715Z,21.10
2023-05-15T08:21:48.704Z,17.60
2023-05-15T08:22:48.702Z,21.10
2023-05-15T08:23:48.700Z,20.10
2023-05-15T08:24:48.692Z,14.00
2023-05-15T08:25:48.678Z,16.50
2023-05-15T08:26:48.686Z,17.50
2023-05-15T08:27:48.670Z,18.70
2023-05-15T08:28:48.681Z,16.10
2023-05-15T08:29:48.659Z,21.20
2023-05-15T08:30:48.675Z,19.60
2023-05-15T08:31:48.737Z,22.60
2023-05-15T08:32:48.669Z,23.20
2023-05-15T08:33:48.635Z,23.90
2023-05-15T08:34:48.650Z,16.70
2023-05-15T08:35:48.689Z,16.20
2023-05-15T08:36:48.635Z,14.60
2023-05-15T08:37:48.650Z,18.10
2023-05-15T08:38:48.626Z,25.80
2023-05-15T08:39:48.610Z,24.20
2023-05-15T08:40:48.601Z,20.80
2023-05-15T08:41:48.598Z,23.20
2023-05-15T08:42:48.599Z,25.20
2023-05-15T08:43:48.590Z,21.20
2023-05-15T08:44:48.612Z,21.90
2023-05-15T08:45:48.586Z,34.20
2023-05-15T08:46:48.672Z,18.10
2023-05-15T08:47:48.653Z,19.30
2023-05-15T08:48:48.634Z,19.80
2023-05-15T08:49:48.585Z,27.00
2023-05-15T08:50:48.614Z,33.30
2023-05-15T08:51:48.561Z,20.60
2023-05-15T08:52:48.566Z,25.80
2023-05-15T08:53:48.553Z,27.30
2023-05-15T08:54:48.714Z,18.80
2023-05-15T08:55:48.570Z,23.90
2023-05-15T08:56:48.530Z,24.20
2023-05-15T08:57:48.525Z,26.20
2023-05-15T08:58:48.520Z,22.40
2023-05-15T08:59:48.516Z,32.50
2023-05-15T09:00:48.520Z,24.80
2023-05-15T09:01:48.515Z,20.30
2023-05-15T09:02:48.579Z,18.40
2023-05-15T09:03:48.686Z,21.60
2023-05-15T09:04:48.483Z,18.50
2023-05-15T09:05:48.480Z,27.70
2023-05-15T09:06:48.482Z,32.50
2023-05-15T09:07:48.473Z,22.30
2023-05-15T09:08:48.479Z,20.80
2023-05-15T09:09:48.456Z,19.10
2023-05-15T09:10:48.468Z,20.10
2023-05-15T09:11:48.457Z,17.90
2023-05-15T09:12:48.454Z,22.10
2023-05-15T09:13:48.450Z,19.50
2023-05-15T09:14:48.468Z,24.60
2023-05-15T09:15:48.466Z,26.80
2023-05-15T09:16:48.523Z,21.30
2023-05-15T09:17:48.480Z,21.40
2023-05-15T09:18:48.460Z,24.90
2023-05-15T09:19:48.420Z,17.30
2023-05-15T09:20:48.433Z,21.00
2023-05-15T09:21:48.413Z,17.50
2023-05-15T09:22:48.431Z,19.30
2023-05-15T09:23:48.407Z,21.30
2023-05-15T09:24:48.522Z,24.80
2023-05-15T09:25:48.394Z,22.10
2023-05-15T09:26:48.398Z,33.20
2023-05-15T09:27:48.393Z,18.10
2023-05-15T09:28:48.374Z,24.20
2023-05-15T09:29:48.362Z,29.60
2023-05-15T09:30:48.367Z,16.40
2023-05-15T09:31:48.405Z,21.70
2023-05-15T09:32:48.389Z,20.00
2023-05-15T09:33:48.355Z,20.30
2023-05-15T09:34:48.344Z,24.00
2023-05-15T09:35:48.354Z,21.80
2023-05-15T09:36:48.344Z,15.90
2023-05-15T09:37:48.335Z,18.50
2023-05-15T09:38:48.500Z,24.80
2023-05-15T09:39:48.339Z,19.10
2023-05-15T09:40:48.363Z,28.80
2023-05-15T09:41:48.320Z,24.40
2023-05-15T09:42:48.302Z,18.50
2023-05-15T09:43:48.320Z,25.80
2023-05-15T09:44:48.302Z,22.10
2023-05-15T09:45:48.455Z,23.60
2023-05-15T09:46:48.357Z,17.10
2023-05-15T09:47:48.348Z,18.00
2023-05-15T09:48:48.304Z,28.20
2023-05-15T09:49:48.281Z,18.80
2023-05-15T09:50:48.276Z,21.70
2023-05-15T09:51:48.275Z,25.80
2023-05-15T09:52:48.265Z,14.60
2023-05-15T09:53:48.257Z,20.60
2023-05-15T09:54:50.232Z,24.70
2023-05-15T09:55:48.250Z,20.30
2023-05-15T09:56:48.247Z,22.30
2023-05-15T09:57:48.233Z,19.80
2023-05-15T09:58:48.234Z,19.90
2023-05-15T09:59:48.252Z,17.30
2023-05-15T10:00:49.434Z,22.30
2023-05-15T10:01:48.266Z,15.90
2023-05-15T10:02:48.243Z,28.30
2023-05-15T10:03:48.233Z,20.00
2023-05-15T10:04:48.257Z,18.30
2023-05-15T10:05:48.365Z,19.40
2023-05-15T10:06:48.219Z,20.30
2023-05-15T10:07:48.213Z,25.10
2023-05-15T10:08:48.206Z,21.70
2023-05-15T10:09:48.200Z,19.20
2023-05-15T10:10:48.193Z,14.80
2023-05-15T10:11:48.192Z,17.90
2023-05-15T10:12:48.434Z,21.50
2023-05-15T10:13:48.201Z,20.00
2023-05-15T10:14:48.181Z,20.10
2023-05-15T10:15:48.198Z,18.90
2023-05-15T10:16:48.184Z,22.80
2023-05-15T10:17:48.187Z,21.80
2023-05-15T10:18:48.215Z,20.40
2023-05-15T10:19:57.855Z,17.50
2023-05-15T10:20:48.170Z,19.80
2023-05-15T10:21:48.172Z,21.90
2023-05-15T10:22:48.191Z,23.90
2023-05-15T10:23:48.162Z,19.70
2023-05-15T10:24:48.155Z,23.40
2023-05-15T10:25:48.171Z,24.40
2023-05-15T10:26:48.164Z,20.50
2023-05-15T10:27:48.156Z,19.40
2023-05-15T10:28:48.152Z,20.80
2023-05-15T10:29:48.150Z,20.40
2023-05-15T10:30:48.146Z,20.80
2023-05-15T10:31:48.208Z,22.50
2023-05-15T10:32:48.178Z,22.40
2023-05-15T10:33:48.143Z,18.00
2023-05-15T10:34:48.142Z,23.90
2023-05-15T10:35:48.145Z,15.10
2023-05-15T10:36:48.137Z,20.30
2023-05-15T10:37:48.156Z,20.90
2023-05-15T10:38:48.140Z,16.70
2023-05-15T10:39:48.136Z,18.60
2023-05-15T10:40:48.134Z,16.80
2023-05-15T10:41:48.129Z,27.50
2023-05-15T10:42:48.127Z,16.10
2023-05-15T10:43:48.137Z,16.40
2023-05-15T10:44:48.131Z,20.90
2023-05-15T10:45:48.136Z,16.30
2023-05-15T10:46:48.172Z,18.30
2023-05-15T10:47:48.228Z,18.30
2023-05-15T10:48:48.122Z,19.00
2023-05-15T10:49:48.119Z,26.40
2023-05-15T10:50:48.124Z,17.40
2023-05-15T10:51:48.150Z,15.20
2023-05-15T10:52:48.118Z,26.30
2023-05-15T10:53:48.133Z,21.00
2023-05-15T10:54:48.132Z,22.10
2023-05-15T10:55:48.135Z,21.60
2023-05-15T10:56:49.935Z,23.50
2023-05-15T10:57:48.141Z,20.10
2023-05-15T10:58:48.128Z,20.10
2023-05-15T10:59:48.115Z,17.30
2023-05-15T11:00:48.131Z,18.80
2023-05-15T11:01:48.110Z,19.20
2023-05-15T11:02:48.171Z,18.60
2023-05-15T11:03:49.943Z,27.30
2023-05-15T11:04:48.190Z,21.30
2023-05-15T11:05:48.109Z,28.50
2023-05-15T11:06:48.125Z,16.40
2023-05-15T11:07:48.132Z,30.70
2023-05-15T11:08:48.111Z,17.30
2023-05-15T11:09:48.119Z,26.30
2023-05-15T11:10:48.111Z,17.00
2023-05-15T11:11:48.126Z,18.40
2023-05-15T11:12:48.112Z,21.00
2023-05-15T11:13:48.110Z,20.70
2023-05-15T11:14:48.114Z,22.20
2023-05-15T11:15:48.120Z,21.10
2023-05-15T11:16:48.170Z,21.70
2023-05-15T11:17:48.134Z,20.70
2023-05-15T11:18:48.193Z,21.60
2023-05-15T11:19:48.107Z,21.40
2023-05-15T11:20:48.105Z,17.40
2023-05-15T11:21:48.124Z,21.70
2023-05-15T11:22:48.129Z,16.30
2023-05-15T11:23:48.114Z,21.00
2023-05-15T11:24:48.134Z,15.80
2023-05-15T11:25:48.138Z,16.50
2023-05-15T11:26:48.109Z,18.00
2023-05-15T11:27:48.113Z,14.70
2023-05-15T11:28:48.127Z,18.50
2023-05-15T11:29:48.131Z,18.10
2023-05-15T11:30:48.171Z,20.50
2023-05-15T11:31:48.116Z,18.30
2023-05-15T11:32:48.168Z,25.20
2023-05-15T11:33:48.393Z,19.20
2023-05-15T11:34:48.104Z,26.70
2023-05-15T11:35:48.168Z,20.30
2023-05-15T11:36:48.107Z,17.90
2023-05-15T11:37:48.117Z,17.90
2023-05-15T11:38:48.108Z,17.50
2023-05-15T11:39:48.107Z,15.60
2023-05-15T11:40:48.114Z,18.60
2023-05-15T11:41:48.122Z,18.10
2023-05-15T11:42:48.108Z,16.70
2023-05-15T11:43:48.105Z,19.40
2023-05-15T11:44:48.098Z,15.80
2023-05-15T11:45:48.099Z,13.20
2023-05-15T11:46:48.111Z,22.70
2023-05-15T11:47:48.134Z,13.80
2023-05-15T11:48:48.190Z,16.60
2023-05-15T11:49:48.099Z,15.70
2023-05-15T11:50:48.096Z,19.40
2023-05-15T11:51:48.128Z,21.30
2023-05-15T11:52:48.093Z,14.30
2023-05-15T11:53:48.077Z,10.70
2023-05-15T11:54:48.094Z,15.50
2023-05-15T11:55:48.088Z,14.10
2023-05-15T11:56:48.110Z,14.10
2023-05-15T11:57:48.080Z,18.00
2023-05-15T11:58:48.083Z,17.10
2023-05-15T11:59:48.082Z,13.70
2023-05-15T12:00:48.077Z,14.80
2023-05-15T12:01:48.098Z,14.90
2023-05-15T12:02:48.157Z,17.60
2023-05-15T12:03:48.256Z,19.80
2023-05-15T12:04:48.096Z,12.00
2023-05-15T12:05:58.206Z,15.10
2023-05-15T12:06:48.074Z,13.60
2023-05-15T12:07:48.079Z,13.50
2023-05-15T12:08:48.076Z,11.50
2023-05-15T12:09:48.063Z,16.70
2023-05-15T12:10:48.061Z,12.10
2023-05-15T12:11:48.061Z,12.90
2023-05-15T12:12:48.060Z,11.70
2023-05-15T12:13:48.057Z,11.50
2023-05-15T12:14:48.052Z,9.30
2023-05-15T12:15:48.075Z,14.00
2023-05-15T12:16:48.167Z,11.60
2023-05-15T12:17:48.073Z,12.60
2023-05-15T12:18:48.164Z,10.90
2023-05-15T12:19:48.068Z,11.50
2023-05-15T12:20:48.053Z,11.30
2023-05-15T12:21:48.044Z,11.40
2023-05-15T12:22:48.041Z,10.10
2023-05-15T12:23:59.522Z,10.70
2023-05-15T12:24:48.042Z,10.60
2023-05-15T12:25:48.037Z,12.90
2023-05-15T12:26:48.047Z,14.20
2023-05-15T12:27:48.029Z,11.70
2023-05-15T12:28:48.037Z,13.20
2023-05-15T12:29:48.028Z,12.90
2023-05-15T12:30:48.023Z,10.50
2023-05-15T12:31:48.049Z,12.10
2023-05-15T12:32:48.126Z,11.00
2023-05-15T12:33:48.046Z,12.10
2023-05-15T12:34:48.026Z,10.20
2023-05-15T12:35:48.021Z,10.80
2023-05-15T12:36:48.009Z,12.10
2023-05-15T12:37:48.023Z,16.40
2023-05-15T12:38:48.010Z,17.20
2023-05-15T12:39:48.022Z,10.70
2023-05-15T12:40:48.017Z,15.90
2023-05-15T12:41:49.743Z,11.30
2023-05-15T12:42:48.007Z,9.40
2023-05-15T12:43:48.006Z,11.40
2023-05-15T12:44:48.006Z,10.50
2023-05-15T12:45:48.033Z,8.70
2023-05-15T12:46:47.990Z,15.80
2023-05-15T12:47:48.015Z,11.10
2023-05-15T12:48:48.004Z,9.60
2023-05-15T12:49:47.985Z,10.10
2023-05-15T12:50:47.996Z,8.90
2023-05-15T12:51:47.988Z,12.00
2023-05-15T12:52:47.992Z,10.20
2023-05-15T12:53:48.015Z,10.30
2023-05-15T12:54:47.981Z,12.50
2023-05-15T12:55:47.982Z,9.10
2023-05-15T12:56:47.973Z,11.50
2023-05-15T12:57:47.973Z,10.90
2023-05-15T12:58:47.997Z,10.90
2023-05-15T12:59:47.976Z,11.70